createdAt,value
2022-09-01T00:00:43.565Z,1003.18
2022-09-01T00:01:43.526Z,1003.14
2022-09-01T00:02:43.552Z,1003.22
2022-09-01T00:03:43.510Z,1003.21
2022-09-01T00:04:43.574Z,1003.20
2022-09-01T00:05:43.527Z,1003.18
2022-09-01T00:06:43.492Z,1003.15
2022-09-01T00:07:43.480Z,1003.15
2022-09-01T00:08:43.474Z,1003.18
2022-09-01T00:09:43.496Z,1003.11
2022-09-01T00:10:43.489Z,1003.17
2022-09-01T00:11:43.448Z,1003.17
2022-09-01T00:12:44.445Z,1003.17
2022-09-01T00:13:43.428Z,1003.13
2022-09-01T00:14:43.426Z,1003.15
2022-09-01T00:15:43.510Z,1003.20
2022-09-01T00:16:43.439Z,1003.24
2022-09-01T00:17:43.421Z,1003.18
2022-09-01T00:18:43.398Z,1003.18
2022-09-01T00:19:43.384Z,1003.17
2022-09-01T00:20:43.422Z,1003.20
2022-09-01T00:21:43.390Z,1003.15
2022-09-01T00:22:43.360Z,1003.18
2022-09-01T00:23:43.357Z,1003.19
2022-09-01T00:24:43.356Z,1003.19
2022-09-01T00:25:43.345Z,1003.25
2022-09-01T00:26:43.408Z,1003.19
2022-09-01T00:27:43.321Z,1003.26
2022-09-01T00:28:44.317Z,1003.19
2022-09-01T00:29:44.065Z,1003.28
2022-09-01T00:30:43.366Z,1003.25
2022-09-01T00:31:43.315Z,1003.28
2022-09-01T00:32:43.278Z,1003.28
2022-09-01T00:33:43.267Z,1003.27
2022-09-01T00:34:43.267Z,1003.24
2022-09-01T00:35:43.314Z,1003.27
2022-09-01T00:36:43.269Z,1003.31
2022-09-01T00:37:43.243Z,1003.29
2022-09-01T00:38:43.227Z,1003.30
2022-09-01T00:39:43.317Z,1003.32
2022-09-01T00:40:43.244Z,1003.29
2022-09-01T00:41:43.262Z,1003.29
2022-09-01T00:42:43.198Z,1003.29
2022-09-01T00:43:43.185Z,1003.27
2022-09-01T00:44:43.178Z,1003.30
2022-09-01T00:45:43.169Z,1003.22
2022-09-01T00:46:49.511Z,1003.26
2022-09-01T00:47:44.150Z,1003.27
2022-09-01T00:48:43.140Z,1003.17
2022-09-01T00:49:43.269Z,1003.18
2022-09-01T00:50:43.128Z,1003.15
2022-09-01T00:51:43.145Z,1003.19
2022-09-01T00:52:43.210Z,1003.23
2022-09-01T00:53:43.105Z,1003.23
2022-09-01T00:54:43.096Z,1003.22
2022-09-01T00:55:43.091Z,1003.23
2022-09-01T00:56:46.577Z,1003.19
2022-09-01T00:57:44.070Z,1003.22
2022-09-01T00:58:43.052Z,1003.24
2022-09-01T00:59:43.050Z,1003.25
2022-09-01T01:00:43.040Z,1003.16
2022-09-01T01:01:43.126Z,1003.15
2022-09-01T01:02:44.082Z,1003.20
2022-09-01T01:03:43.022Z,1003.21
2022-09-01T01:04:43.037Z,1003.20
2022-09-01T01:05:43.002Z,1003.11
2022-09-01T01:06:43.055Z,1003.16
2022-09-01T01:07:42.980Z,1003.14
2022-09-01T01:08:43.041Z,1003.15
2022-09-01T01:09:42.970Z,1003.14
2022-09-01T01:10:42.956Z,1003.15
2022-09-01T01:11:43.098Z,1003.14
2022-09-01T01:12:42.933Z,1003.18
2022-09-01T01:13:42.928Z,1003.11
2022-09-01T01:14:45.807Z,1003.09
2022-09-01T01:15:42.915Z,1003.04
2022-09-01T01:16:42.964Z,1003.09
2022-09-01T01:17:42.899Z,1003.06
2022-09-01T01:18:42.910Z,1003.08
2022-09-01T01:19:42.888Z,1003.02
2022-09-01T01:20:42.870Z,1003.09
2022-09-01T01:21:42.944Z,1003.11
2022-09-01T01:22:42.895Z,1003.07
2022-09-01T01:23:42.849Z,1003.02
2022-09-01T01:24:42.837Z,1003.09
2022-09-01T01:25:42.833Z,1003.08
2022-09-01T01:26:42.873Z,1003.04
2022-09-01T01:27:43.172Z,1003.06
2022-09-01T01:28:42.808Z,1003.10
2022-09-01T01:29:42.793Z,1003.11
2022-09-01T01:30:42.820Z,1003.06
2022-09-01T01:31:42.803Z,1003.05
2022-09-01T01:32:42.771Z,1003.07
2022-09-01T01:33:43.051Z,1003.04
2022-09-01T01:34:42.749Z,1003.09
2022-09-01T01:35:42.775Z,1003.09
2022-09-01T01:36:42.766Z,1003.07
2022-09-01T01:37:42.729Z,1003.09
2022-09-01T01:38:42.719Z,1003.06
2022-09-01T01:39:42.709Z,1003.15
2022-09-01T01:40:42.748Z,1003.08
2022-09-01T01:41:42.720Z,1003.13
2022-09-01T01:42:42.680Z,1003.07
2022-09-01T01:43:42.672Z,1003.02
2022-09-01T01:44:42.672Z,1003.03
2022-09-01T01:45:42.683Z,1003.08
2022-09-01T01:46:42.681Z,1003.14
2022-09-01T01:47:42.722Z,1003.09
2022-09-01T01:48:42.636Z,1003.09
2022-09-01T01:49:42.637Z,1003.09
2022-09-01T01:50:42.638Z,1003.07
2022-09-01T01:51:42.648Z,1003.04
2022-09-01T01:52:45.431Z,1003.03
2022-09-01T01:53:42.650Z,1003.03
2022-09-01T01:54:42.597Z,1003.04
2022-09-01T01:55:42.579Z,1003.11
2022-09-01T01:56:42.602Z,1003.05
2022-09-01T01:57:42.563Z,1003.05
2022-09-01T01:58:42.557Z,1002.99
2022-09-01T01:59:42.554Z,1003.05
2022-09-01T02:00:42.550Z,1003.06
2022-09-01T02:01:42.606Z,1003.10
2022-09-01T02:02:42.568Z,1003.07
2022-09-01T02:03:42.526Z,1003.10
2022-09-01T02:04:42.508Z,1003.12
2022-09-01T02:05:42.498Z,1003.16
2022-09-01T02:06:42.774Z,1003.14
2022-09-01T02:07:42.486Z,1003.15
2022-09-01T02:08:42.714Z,1003.10
2022-09-01T02:09:42.640Z,1003.18
2022-09-01T02:10:42.458Z,1003.11
2022-09-01T02:11:42.628Z,1003.12
2022-09-01T02:12:42.446Z,1003.15
2022-09-01T02:13:42.448Z,1003.16
2022-09-01T02:14:42.436Z,1003.12
2022-09-01T02:15:42.427Z,1003.15
2022-09-01T02:16:42.501Z,1003.14
2022-09-01T02:17:42.406Z,1003.12
2022-09-01T02:18:42.400Z,1003.11
2022-09-01T02:19:42.388Z,1003.06
2022-09-01T02:20:42.389Z,1003.08
2022-09-01T02:21:42.390Z,1003.07
2022-09-01T02:22:42.399Z,1003.04
2022-09-01T02:23:42.355Z,1003.04
2022-09-01T02:24:42.347Z,1003.05
2022-09-01T02:25:58.974Z,1003.01
2022-09-01T02:26:44.333Z,1002.99
2022-09-01T02:27:42.353Z,1002.98
2022-09-01T02:28:42.316Z,1002.94
2022-09-01T02:29:43.721Z,1002.94
2022-09-01T02:30:43.332Z,1003.02
2022-09-01T02:31:42.308Z,1003.04
2022-09-01T02:32:42.310Z,1003.01
2022-09-01T02:33:42.288Z,1003.03
2022-09-01T02:34:42.264Z,1002.98
2022-09-01T02:35:42.252Z,1002.98
2022-09-01T02:36:42.246Z,1002.99
2022-09-01T02:37:42.265Z,1002.92
2022-09-01T02:38:42.238Z,1002.99
2022-09-01T02:39:42.240Z,1002.94
2022-09-01T02:40:42.258Z,1002.95
2022-09-01T02:41:42.205Z,1003.02
2022-09-01T02:42:42.224Z,1002.99
2022-09-01T02:43:42.309Z,1002.96
2022-09-01T02:44:42.294Z,1002.98
2022-09-01T02:45:42.195Z,1003.00
2022-09-01T02:46:42.160Z,1002.96
2022-09-01T02:47:42.190Z,1002.93
2022-09-01T02:48:42.147Z,1002.93
2022-09-01T02:49:42.237Z,1002.94
2022-09-01T02:50:42.139Z,1002.94
2022-09-01T02:51:42.122Z,1002.93
2022-09-01T02:52:42.152Z,1002.97
2022-09-01T02:53:42.154Z,1002.91
2022-09-01T02:54:42.097Z,1002.92
2022-09-01T02:55:42.088Z,1002.98
2022-09-01T02:56:42.082Z,1002.90
2022-09-01T02:57:42.099Z,1002.89
2022-09-01T02:58:42.089Z,1002.92
2022-09-01T02:59:43.945Z,1002.93
2022-09-01T03:00:43.046Z,1002.93
2022-09-01T03:01:42.041Z,1002.97
2022-09-01T03:02:42.072Z,1002.99
2022-09-01T03:03:42.029Z,1002.96
2022-09-01T03:04:42.125Z,1002.95
2022-09-01T03:05:42.010Z,1002.99
2022-09-01T03:06:41.994Z,1003.01
2022-09-01T03:07:42.045Z,1003.01
2022-09-01T03:08:42.003Z,1002.96
2022-09-01T03:09:41.969Z,1002.98
2022-09-01T03:10:42.087Z,1003.00
2022-09-01T03:11:42.059Z,1003.03
2022-09-01T03:12:42.208Z,1003.00
2022-09-01T03:13:41.942Z,1002.97
2022-09-01T03:14:41.932Z,1003.02
2022-09-01T03:15:41.913Z,1003.02
2022-09-01T03:16:41.980Z,1003.05
2022-09-01T03:17:41.965Z,1003.07
2022-09-01T03:18:42.060Z,1003.01
2022-09-01T03:19:41.881Z,1002.97
2022-09-01T03:20:41.868Z,1003.04
2022-09-01T03:21:42.878Z,1003.03
2022-09-01T03:22:41.863Z,1003.02
2022-09-01T03:23:41.887Z,1003.06
2022-09-01T03:24:41.851Z,1003.06
2022-09-01T03:25:41.835Z,1003.03
2022-09-01T03:26:41.828Z,1003.05
2022-09-01T03:27:41.817Z,1003.09
2022-09-01T03:28:41.844Z,1003.11
2022-09-01T03:29:41.843Z,1003.08
2022-09-01T03:30:41.793Z,1003.12
2022-09-01T03:31:41.831Z,1003.08
2022-09-01T03:32:41.777Z,1003.12
2022-09-01T03:33:41.808Z,1003.11
2022-09-01T03:34:41.763Z,1003.10
2022-09-01T03:35:41.762Z,1003.04
2022-09-01T03:36:41.745Z,1003.05
2022-09-01T03:37:41.999Z,1003.05
2022-09-01T03:38:41.753Z,1003.08
2022-09-01T03:39:41.719Z,1003.05
2022-09-01T03:40:41.799Z,1003.11
2022-09-01T03:41:41.706Z,1003.06
2022-09-01T03:42:41.704Z,1003.07
2022-09-01T03:43:46.966Z,1003.03
2022-09-01T03:44:42.685Z,1003.06
2022-09-01T03:45:41.720Z,1003.08
2022-09-01T03:46:41.680Z,1003.11
2022-09-01T03:47:41.658Z,1003.09
2022-09-01T03:48:41.677Z,1003.06
2022-09-01T03:49:41.643Z,1003.07
2022-09-01T03:50:41.634Z,1003.07
2022-09-01T03:51:41.628Z,1003.05
2022-09-01T03:52:41.617Z,1003.08
2022-09-01T03:53:41.690Z,1003.04
2022-09-01T03:54:41.610Z,1003.04
2022-09-01T03:55:41.595Z,1003.05
2022-09-01T03:56:41.807Z,1003.04
2022-09-01T03:57:41.578Z,1003.03
2022-09-01T03:58:41.593Z,1003.05
2022-09-01T03:59:41.560Z,1003.04
2022-09-01T04:00:41.582Z,1003.06
2022-09-01T04:01:42.557Z,1003.09
2022-09-01T04:02:41.619Z,1003.04
2022-09-01T04:03:41.563Z,1003.00
2022-09-01T04:04:41.550Z,1003.03
2022-09-01T04:05:41.508Z,1002.98
2022-09-01T04:06:41.501Z,1003.03
2022-09-01T04:07:41.493Z,1002.97
2022-09-01T04:08:41.518Z,1002.97
2022-09-01T04:09:41.475Z,1003.00
2022-09-01T04:10:41.473Z,1003.03
2022-09-01T04:11:45.613Z,1003.01
2022-09-01T04:12:42.466Z,1003.05
2022-09-01T04:13:41.540Z,1003.03
2022-09-01T04:14:41.442Z,1003.06
2022-09-01T04:15:41.440Z,1003.08
2022-09-01T04:16:41.476Z,1003.08
2022-09-01T04:17:41.424Z,1003.03
2022-09-01T04:18:41.439Z,1003.02
2022-09-01T04:19:41.410Z,1003.06
2022-09-01T04:20:41.410Z,1003.03
2022-09-01T04:21:41.389Z,1003.03
2022-09-01T04:22:41.386Z,1003.04
2022-09-01T04:23:41.399Z,1002.99
2022-09-01T04:24:44.979Z,1003.08
2022-09-01T04:25:42.351Z,1003.07
2022-09-01T04:26:41.344Z,1003.05
2022-09-01T04:27:41.332Z,1003.06
2022-09-01T04:28:41.349Z,1003.03
2022-09-01T04:29:41.316Z,1002.99
2022-09-01T04:30:41.309Z,1003.03
2022-09-01T04:31:41.379Z,1003.13
2022-09-01T04:32:41.285Z,1003.04
2022-09-01T04:33:41.312Z,1003.03
2022-09-01T04:34:41.271Z,1003.06
2022-09-01T04:35:41.267Z,1003.06
2022-09-01T04:36:41.253Z,1003.05
2022-09-01T04:37:41.237Z,1003.04
2022-09-01T04:38:42.269Z,1003.06
2022-09-01T04:39:41.237Z,1003.01
2022-09-01T04:40:41.260Z,1003.05
2022-09-01T04:41:41.232Z,1003.06
2022-09-01T04:42:41.210Z,1003.06
2022-09-01T04:43:41.240Z,1003.03
2022-09-01T04:44:41.198Z,1003.06
2022-09-01T04:45:41.268Z,1003.03
2022-09-01T04:46:41.177Z,1003.06
2022-09-01T04:47:41.164Z,1003.03
2022-09-01T04:48:41.189Z,1003.08
2022-09-01T04:49:41.144Z,1003.09
2022-09-01T04:50:41.168Z,1003.12
2022-09-01T04:51:41.132Z,1003.14
2022-09-01T04:52:41.129Z,1003.09
2022-09-01T04:53:41.148Z,1003.09
2022-09-01T04:54:41.118Z,1003.15
2022-09-01T04:55:41.111Z,1003.11
2022-09-01T04:56:41.090Z,1003.18
2022-09-01T04:57:41.088Z,1003.17
2022-09-01T04:58:41.114Z,1003.10
2022-09-01T04:59:41.072Z,1003.13
2022-09-01T05:00:41.088Z,1003.07
2022-09-01T05:01:41.079Z,1003.15
2022-09-01T05:02:41.049Z,1003.10
2022-09-01T05:03:41.075Z,1003.10
2022-09-01T05:04:41.035Z,1003.09
2022-09-01T05:05:41.040Z,1003.01
2022-09-01T05:06:41.015Z,1003.01
2022-09-01T05:07:41.005Z,1003.07
2022-09-01T05:08:41.027Z,1003.04
2022-09-01T05:09:40.991Z,1003.02
2022-09-01T05:10:40.985Z,1003.01
2022-09-01T05:11:40.979Z,1002.99
2022-09-01T05:12:40.960Z,1003.02
2022-09-01T05:13:40.978Z,1003.04
2022-09-01T05:14:41.951Z,1003.04
2022-09-01T05:15:40.935Z,1003.01
2022-09-01T05:16:40.978Z,1003.11
2022-09-01T05:17:40.927Z,1003.05
2022-09-01T05:18:40.951Z,1003.03
2022-09-01T05:19:40.904Z,1003.06
2022-09-01T05:20:40.909Z,1003.02
2022-09-01T05:21:40.885Z,1003.07
2022-09-01T05:22:40.884Z,1003.09
2022-09-01T05:23:40.935Z,1003.07
2022-09-01T05:24:42.249Z,1003.13
2022-09-01T05:25:41.856Z,1003.03
2022-09-01T05:26:40.853Z,1003.10
2022-09-01T05:27:40.844Z,1003.04
2022-09-01T05:28:40.861Z,1003.11
2022-09-01T05:29:40.820Z,1003.03
2022-09-01T05:30:40.812Z,1003.00
2022-09-01T05:31:40.881Z,1003.05
2022-09-01T05:32:40.796Z,1003.00
2022-09-01T05:33:40.791Z,1003.01
2022-09-01T05:34:40.806Z,1003.08
2022-09-01T05:35:40.768Z,1003.05
2022-09-01T05:36:40.761Z,1003.10
2022-09-01T05:37:40.758Z,1003.02
2022-09-01T05:38:40.750Z,1003.02
2022-09-01T05:39:40.790Z,1003.03
2022-09-01T05:40:40.788Z,1003.09
2022-09-01T05:41:40.721Z,1003.12
2022-09-01T05:42:40.711Z,1003.08
2022-09-01T05:43:40.703Z,1003.07
2022-09-01T05:44:40.734Z,1003.09
2022-09-01T05:46:05.270Z,1003.05
2022-09-01T05:46:42.760Z,1003.07
2022-09-01T05:47:40.673Z,1003.06
2022-09-01T05:48:40.666Z,1003.10
2022-09-01T05:49:40.675Z,1003.01
2022-09-01T05:50:40.644Z,1003.05
2022-09-01T05:51:46.188Z,1003.09
2022-09-01T05:52:42.640Z,1003.08
2022-09-01T05:53:40.625Z,1003.00
2022-09-01T05:54:40.641Z,1003.06
2022-09-01T05:55:40.598Z,1003.04
2022-09-01T05:56:43.530Z,1003.09
2022-09-01T05:57:41.590Z,1003.05
2022-09-01T05:59:42.599Z,1003.10
2022-09-01T06:00:40.562Z,1003.00
2022-09-01T06:01:40.653Z,1003.06
2022-09-01T06:02:40.630Z,1003.00
2022-09-01T06:03:40.531Z,1003.05
2022-09-01T06:04:40.563Z,1003.01
2022-09-01T06:05:40.542Z,1003.03
2022-09-01T06:07:01.715Z,1003.05
2022-09-01T06:07:42.514Z,1003.06
2022-09-01T06:08:46.658Z,1003.02
2022-09-01T06:09:41.621Z,1003.09
2022-09-01T06:10:40.491Z,1003.04
2022-09-01T06:11:40.489Z,1003.06
2022-09-01T06:12:40.683Z,1003.05
2022-09-01T06:13:40.481Z,1003.12
2022-09-01T06:14:40.472Z,1003.06
2022-09-01T06:15:40.432Z,1003.03
2022-09-01T06:16:40.481Z,1003.06
2022-09-01T06:17:40.422Z,1003.11
2022-09-01T06:18:40.418Z,1003.06
2022-09-01T06:19:40.439Z,1003.10
2022-09-01T06:20:40.400Z,1003.09
2022-09-01T06:21:40.394Z,1003.06
2022-09-01T06:22:40.386Z,1003.02
2022-09-01T06:23:40.373Z,1003.04
2022-09-01T06:24:40.397Z,1003.05
2022-09-01T06:25:40.355Z,1003.02
2022-09-01T06:26:40.350Z,1003.03
2022-09-01T06:27:40.342Z,1003.09
2022-09-01T06:28:40.332Z,1003.03
2022-09-01T06:29:40.353Z,1003.00
2022-09-01T06:30:40.312Z,1002.97
2022-09-01T06:31:40.341Z,1002.94
2022-09-01T06:32:40.298Z,1002.98
2022-09-01T06:33:40.289Z,1002.99
2022-09-01T06:34:40.322Z,1003.03
2022-09-01T06:35:40.280Z,1002.97
2022-09-01T06:36:40.267Z,1002.98
2022-09-01T06:37:40.256Z,1003.01
2022-09-01T06:38:40.256Z,1003.03
2022-09-01T06:39:40.281Z,1002.99
2022-09-01T06:40:40.266Z,1003.00
2022-09-01T06:41:40.237Z,1003.07
2022-09-01T06:42:40.219Z,1003.05
2022-09-01T06:43:40.208Z,1003.02
2022-09-01T06:44:41.234Z,1003.06
2022-09-01T06:45:41.195Z,1002.94
2022-09-01T06:46:40.214Z,1003.06
2022-09-01T06:47:40.178Z,1003.02
2022-09-01T06:48:40.197Z,1003.05
2022-09-01T06:49:40.195Z,1003.06
2022-09-01T06:51:42.144Z,1003.08
2022-09-01T06:53:42.128Z,1003.11
2022-09-01T06:54:40.159Z,1003.02
2022-09-01T06:55:40.118Z,1003.12
2022-09-01T06:56:42.812Z,1003.08
2022-09-01T06:58:42.095Z,1003.10
2022-09-01T06:59:40.113Z,1003.10
2022-09-01T07:00:40.073Z,1003.11
2022-09-01T07:01:40.162Z,1003.17
2022-09-01T07:02:40.114Z,1003.10
2022-09-01T07:03:40.078Z,1003.00
2022-09-01T07:04:40.047Z,1003.08
2022-09-01T07:11:19.515Z,1002.98
2022-09-01T07:13:05.047Z,1003.09
2022-09-01T07:14:15.189Z,1003.08
2022-09-01T07:16:52.177Z,1003.06
2022-09-01T07:17:42.356Z,1003.02
2022-09-01T07:18:39.932Z,1003.12
2022-09-01T07:19:55.357Z,1003.12
2022-09-01T07:21:02.755Z,1003.05
2022-09-01T07:23:04.494Z,1003.02
2022-09-01T07:24:07.939Z,1002.96
2022-09-01T07:24:41.887Z,1003.02
2022-09-01T07:26:49.053Z,1002.96
2022-09-01T07:27:41.856Z,1002.98
2022-09-01T07:28:40.450Z,1003.01
2022-09-01T07:29:41.616Z,1003.00
2022-09-01T07:30:39.859Z,1003.03
2022-09-01T07:32:44.199Z,1003.01
2022-09-01T07:33:42.009Z,1003.02
2022-09-01T07:34:40.807Z,1002.93
2022-09-01T07:36:24.943Z,1002.95
2022-09-01T07:37:17.137Z,1002.95
2022-09-01T07:39:47.235Z,1002.95
2022-09-01T07:39:49.851Z,1002.93
2022-09-01T07:42:56.126Z,1003.09
2022-09-01T07:42:56.719Z,1003.07
2022-09-01T07:43:41.740Z,1002.98
2022-09-01T07:44:39.729Z,1002.95
2022-09-01T07:45:47.437Z,1002.92
2022-09-01T07:46:41.721Z,1002.97
2022-09-01T07:47:55.212Z,1002.89
2022-09-01T07:50:09.752Z,1002.79
2022-09-01T07:51:35.298Z,1002.75
2022-09-01T07:51:41.701Z,1002.83
2022-09-01T07:52:39.654Z,1002.79
2022-09-01T07:53:39.659Z,1002.81
2022-09-01T07:54:39.643Z,1002.89
2022-09-01T07:55:39.666Z,1002.87
2022-09-01T07:56:40.472Z,1002.85
2022-09-01T07:57:40.621Z,1002.84
2022-09-01T07:58:39.613Z,1002.91
2022-09-01T07:59:39.609Z,1002.90
2022-09-01T08:00:39.631Z,1002.93
2022-09-01T08:01:39.675Z,1002.86
2022-09-01T08:02:39.621Z,1002.84
2022-09-01T08:03:39.587Z,1002.90
2022-09-01T08:04:39.567Z,1002.90
2022-09-01T08:05:39.562Z,1002.86
2022-09-01T08:06:40.963Z,1002.92
2022-09-01T08:07:51.671Z,1002.93
2022-09-01T08:08:41.544Z,1002.92
2022-09-01T08:09:44.168Z,1002.88
2022-09-01T08:10:41.567Z,1002.90
2022-09-01T08:12:01.240Z,1002.84
2022-09-01T08:12:41.529Z,1002.94
2022-09-01T08:13:42.006Z,1002.94
2022-09-01T08:14:40.493Z,1002.90
2022-09-01T08:15:39.502Z,1002.87
2022-09-01T08:16:40.090Z,1002.92
2022-09-01T08:17:56.737Z,1002.90
2022-09-01T08:18:49.520Z,1002.91
2022-09-01T08:19:42.280Z,1002.91
2022-09-01T08:20:39.439Z,1002.85
2022-09-01T08:21:39.458Z,1002.83
2022-09-01T08:22:39.433Z,1002.90
2022-09-01T08:23:39.430Z,1002.95
2022-09-01T08:24:39.417Z,1002.79
2022-09-01T08:25:39.444Z,1002.84
2022-09-01T08:26:39.425Z,1002.88
2022-09-01T08:27:39.387Z,1002.81
2022-09-01T08:28:39.630Z,1002.83
2022-09-01T08:29:39.383Z,1002.77
2022-09-01T08:30:39.380Z,1002.78
2022-09-01T08:31:39.397Z,1002.85
2022-09-01T08:32:39.344Z,1002.86
2022-09-01T08:33:39.334Z,1002.86
2022-09-01T08:34:39.335Z,1002.76
2022-09-01T08:35:39.321Z,1002.82
2022-09-01T08:36:39.341Z,1002.85
2022-09-01T08:37:39.302Z,1002.87
2022-09-01T08:38:39.302Z,1002.84
2022-09-01T08:39:39.294Z,1002.84
2022-09-01T08:40:39.333Z,1002.84
2022-09-01T08:41:39.305Z,1002.84
2022-09-01T08:42:39.265Z,1002.86
2022-09-01T08:43:39.260Z,1002.77
2022-09-01T08:44:39.259Z,1002.84
2022-09-01T08:45:39.241Z,1002.90
2022-09-01T08:46:39.409Z,1002.81
2022-09-01T08:47:55.994Z,1002.77
2022-09-01T08:49:43.197Z,1002.77
2022-09-01T08:50:40.852Z,1002.76
2022-09-01T08:51:39.260Z,1002.81
2022-09-01T08:52:39.200Z,1002.83
2022-09-01T08:53:39.182Z,1002.76
2022-09-01T08:54:39.177Z,1002.71
2022-09-01T08:55:39.409Z,1002.70
2022-09-01T08:56:39.162Z,1002.76
2022-09-01T08:57:39.168Z,1002.72
2022-09-01T08:58:40.215Z,1002.73
2022-09-01T08:59:39.252Z,1002.74
2022-09-01T09:00:39.162Z,1002.72
2022-09-01T09:01:39.148Z,1002.68
2022-09-01T09:02:39.193Z,1002.74
2022-09-01T09:03:42.212Z,1002.68
2022-09-01T09:04:40.095Z,1002.67
2022-09-01T09:05:39.126Z,1002.66
2022-09-01T09:06:39.081Z,1002.68
2022-09-01T09:07:39.098Z,1002.70
2022-09-01T09:08:39.067Z,1002.71
2022-09-01T09:09:39.136Z,1002.67
2022-09-01T09:10:39.085Z,1002.64
2022-09-01T09:11:39.092Z,1002.66
2022-09-01T09:12:49.008Z,1002.69
2022-09-01T09:13:41.058Z,1002.73
2022-09-01T09:14:39.029Z,1002.65
2022-09-01T09:15:39.078Z,1002.71
2022-09-01T09:16:39.016Z,1002.63
2022-09-01T09:17:39.113Z,1002.66
2022-09-01T09:18:40.511Z,1002.68
2022-09-01T09:19:38.996Z,1002.67
2022-09-01T09:20:39.011Z,1002.62
2022-09-01T09:21:38.972Z,1002.54
2022-09-01T09:22:38.959Z,1002.58
2022-09-01T09:23:38.955Z,1002.55
2022-09-01T09:24:40.339Z,1002.55
2022-09-01T09:25:38.972Z,1002.58
2022-09-01T09:26:42.547Z,1002.49
2022-09-01T09:27:39.929Z,1002.48
2022-09-01T09:28:38.926Z,1002.50
2022-09-01T09:29:38.911Z,1002.52
2022-09-01T09:30:38.971Z,1002.47
2022-09-01T09:31:38.939Z,1002.54
2022-09-01T09:33:08.969Z,1002.45
2022-09-01T09:33:57.777Z,1002.36
2022-09-01T09:34:40.875Z,1002.48
2022-09-01T09:35:38.958Z,1002.45
2022-09-01T09:36:38.855Z,1002.40
2022-09-01T09:37:38.859Z,1002.40
2022-09-01T09:38:38.842Z,1002.40
2022-09-01T09:39:38.831Z,1002.30
2022-09-01T09:41:00.074Z,1002.30
2022-09-01T09:41:40.934Z,1002.30
2022-09-01T09:42:39.026Z,1002.26
2022-09-01T09:43:40.281Z,1002.28
2022-09-01T09:44:39.291Z,1002.31
2022-09-01T09:45:41.882Z,1002.28
2022-09-01T09:46:38.820Z,1002.15
2022-09-01T09:47:45.549Z,1002.14
2022-09-01T09:48:40.762Z,1002.22
2022-09-01T09:49:44.290Z,1002.15
2022-09-01T09:50:40.800Z,1002.15
2022-09-01T09:51:38.738Z,1002.21
2022-09-01T09:52:38.735Z,1002.13
2022-09-01T09:53:38.725Z,1002.01
2022-09-01T09:54:38.712Z,1002.07
2022-09-01T09:55:38.713Z,1002.06
2022-09-01T09:56:38.729Z,1002.07
2022-09-01T09:57:38.691Z,1002.07
2022-09-01T09:58:38.690Z,1002.08
2022-09-01T09:59:57.795Z,1002.05
2022-09-01T10:00:40.697Z,1002.12
2022-09-01T10:01:38.689Z,1002.15
2022-09-01T10:02:38.651Z,1002.01
2022-09-01T10:03:38.694Z,1002.17
2022-09-01T10:04:38.655Z,1002.17
2022-09-01T10:05:38.639Z,1002.17
2022-09-01T10:06:38.667Z,1002.07
2022-09-01T10:07:38.617Z,1002.07
2022-09-01T10:08:38.613Z,1002.05
2022-09-01T10:09:38.605Z,1001.99
2022-09-01T10:10:38.603Z,1001.92
2022-09-01T10:11:41.481Z,1001.93
2022-09-01T10:12:38.590Z,1001.98
2022-09-01T10:13:38.643Z,1002.01
2022-09-01T10:14:53.843Z,1002.05
2022-09-01T10:15:40.596Z,1002.04
2022-09-01T10:16:38.597Z,1001.95
2022-09-01T10:17:38.542Z,1002.05
2022-09-01T10:18:38.592Z,1001.93
2022-09-01T10:19:38.537Z,1001.93
2022-09-01T10:20:38.554Z,1001.96
2022-09-01T10:21:38.519Z,1001.83
2022-09-01T10:22:38.511Z,1001.86
2022-09-01T10:23:38.775Z,1001.90
2022-09-01T10:24:39.320Z,1001.80
2022-09-01T10:25:40.518Z,1001.83
2022-09-01T10:26:38.484Z,1001.97
2022-09-01T10:27:38.467Z,1001.93
2022-09-01T10:28:38.469Z,1001.90
2022-09-01T10:29:47.538Z,1001.86
2022-09-01T10:30:40.604Z,1001.77
2022-09-01T10:31:38.441Z,1001.84
2022-09-01T10:32:47.733Z,1001.80
2022-09-01T10:33:41.028Z,1001.73
2022-09-01T10:34:41.833Z,1001.79
2022-09-01T10:35:39.690Z,1001.81
2022-09-01T10:36:39.409Z,1001.80
2022-09-01T10:37:38.410Z,1001.76
2022-09-01T10:38:39.275Z,1001.73
2022-09-01T10:39:43.100Z,1001.75
2022-09-01T10:40:43.878Z,1001.63
2022-09-01T10:41:39.070Z,1001.63
2022-09-01T10:42:38.371Z,1001.60
2022-09-01T10:43:38.429Z,1001.66
2022-09-01T10:44:38.362Z,1001.70
2022-09-01T10:45:38.449Z,1001.64
2022-09-01T10:46:40.725Z,1001.67
2022-09-01T10:47:39.359Z,1001.67
2022-09-01T10:48:48.372Z,1001.66
2022-09-01T10:49:40.476Z,1001.60
2022-09-01T10:50:38.315Z,1001.69
2022-09-01T10:51:39.032Z,1001.67
2022-09-01T10:52:40.315Z,1001.62
2022-09-01T10:53:38.294Z,1001.64
2022-09-01T10:54:39.042Z,1001.55
2022-09-01T10:55:39.271Z,1001.55
2022-09-01T10:56:43.676Z,1001.60
2022-09-01T10:57:42.846Z,1001.53
2022-09-01T10:59:44.244Z,1001.61
2022-09-01T11:00:40.471Z,1001.58
2022-09-01T11:01:48.317Z,1001.58
2022-09-01T11:02:46.544Z,1001.52
2022-09-01T11:03:47.817Z,1001.61
2022-09-01T11:04:40.315Z,1001.50
2022-09-01T11:05:38.201Z,1001.50
2022-09-01T11:06:38.222Z,1001.49
2022-09-01T11:08:00.024Z,1001.45
2022-09-01T11:08:40.186Z,1001.59
2022-09-01T11:09:38.176Z,1001.59
2022-09-01T11:10:38.169Z,1001.50
2022-09-01T11:11:38.193Z,1001.45
2022-09-01T11:12:38.149Z,1001.42
2022-09-01T11:13:38.137Z,1001.48
2022-09-01T11:14:38.143Z,1001.48
2022-09-01T11:15:38.130Z,1001.51
2022-09-01T11:16:53.691Z,1001.42
2022-09-01T11:17:40.153Z,1001.47
2022-09-01T11:18:38.114Z,1001.47
2022-09-01T11:19:38.100Z,1001.48
2022-09-01T11:20:38.097Z,1001.49
2022-09-01T11:21:38.269Z,1001.44
2022-09-01T11:22:39.075Z,1001.47
2022-09-01T11:23:38.068Z,1001.45
2022-09-01T11:24:38.070Z,1001.39
2022-09-01T11:25:39.906Z,1001.38
2022-09-01T11:26:39.090Z,1001.38
2022-09-01T11:27:38.044Z,1001.40
2022-09-01T11:28:38.037Z,1001.39
2022-09-01T11:29:38.028Z,1001.41
2022-09-01T11:30:38.044Z,1001.40
2022-09-01T11:31:38.052Z,1001.39
2022-09-01T11:32:38.046Z,1001.40
2022-09-01T11:33:38.005Z,1001.34
2022-09-01T11:34:37.996Z,1001.39
2022-09-01T11:35:37.985Z,1001.35
2022-09-01T11:36:37.981Z,1001.51
2022-09-01T11:37:38.021Z,1001.32
2022-09-01T11:38:37.962Z,1001.34
2022-09-01T11:39:37.947Z,1001.35
2022-09-01T11:40:38.038Z,1001.40
2022-09-01T11:41:37.954Z,1001.35
2022-09-01T11:42:37.960Z,1001.42
2022-09-01T11:43:37.926Z,1001.30
2022-09-01T11:44:37.921Z,1001.35
2022-09-01T11:45:37.933Z,1001.31
2022-09-01T11:46:37.906Z,1001.40
2022-09-01T11:47:37.927Z,1001.29
2022-09-01T11:48:37.887Z,1001.22
2022-09-01T11:49:37.880Z,1001.33
2022-09-01T11:50:37.881Z,1001.24
2022-09-01T11:51:37.869Z,1001.35
2022-09-01T11:52:37.886Z,1001.29
2022-09-01T11:53:37.856Z,1001.23
2022-09-01T11:54:37.848Z,1001.18
2022-09-01T11:55:37.835Z,1001.20
2022-09-01T11:56:37.830Z,1001.19
2022-09-01T11:57:37.856Z,1001.24
2022-09-01T11:58:37.809Z,1001.26
2022-09-01T11:59:37.815Z,1001.23
2022-09-01T12:00:37.795Z,1001.21
2022-09-01T12:01:37.795Z,1001.21
2022-09-01T12:02:37.837Z,1001.25
2022-09-01T12:03:37.879Z,1001.24
2022-09-01T12:04:37.760Z,1001.24
2022-09-01T12:05:37.758Z,1001.28
2022-09-01T12:06:37.758Z,1001.24
2022-09-01T12:07:37.801Z,1001.24
2022-09-01T12:08:37.731Z,1001.21
2022-09-01T12:09:37.727Z,1001.16
2022-09-01T12:10:37.720Z,1001.20
2022-09-01T12:11:37.724Z,1001.15
2022-09-01T12:12:37.732Z,1001.14
2022-09-01T12:13:37.718Z,1001.17
2022-09-01T12:15:01.969Z,1001.20
2022-09-01T12:15:54.959Z,1001.24
2022-09-01T12:16:38.693Z,1001.18
2022-09-01T12:17:37.696Z,1001.10
2022-09-01T12:18:37.672Z,1001.04
2022-09-01T12:19:37.651Z,1001.13
2022-09-01T12:20:37.719Z,1001.04
2022-09-01T12:21:37.636Z,1001.05
2022-09-01T12:22:37.675Z,1001.04
2022-09-01T12:23:37.631Z,1001.04
2022-09-01T12:24:37.616Z,1001.06
2022-09-01T12:25:37.613Z,1001.15